sensor_id;sensor_type;location;lat;lon;timestamp;temperature;humidity
25991;DHT22;13779;-33.886;151.198;2023-02-15T00:02:02;22.90;99.90
25991;DHT22;13779;-33.886;151.198;2023-02-15T00:04:33;23.00;99.90
25991;DHT22;13779;-33.886;151.198;2023-02-15T00:07:17;23.00;99.90
25991;DHT22;13779;-33.886;151.198;2023-02-15T00:09:48;23.00;99.90
25991;DHT22;13779;-33.886;151.198;2023-02-15T00:12:19;23.00;99.90
25991;DHT22;13779;-33.886;151.198;2023-02-15T00:14:49;22.90;99.90
25991;DHT22;13779;-33.886;151.198;2023-02-15T00:17:21;22.80;99.90
25991;DHT22;13779;-33.886;151.198;2023-02-15T00:19:51;22.70;99.90
25991;DHT22;13779;-33.886;151.198;2023-02-15T00:22:21;22.60;99.90
25991;DHT22;13779;-33.886;151.198;2023-02-15T00:24:52;22.60;99.90
25991;DHT22;13779;-33.886;151.198;2023-02-15T00:27:22;22.60;99.90
25991;DHT22;13779;-33.886;151.198;2023-02-15T00:29:53;22.60;99.90
25991;DHT22;13779;-33.886;151.198;2023-02-15T00:32:23;22.70;99.90
25991;DHT22;13779;-33.886;151.198;2023-02-15T00:34:54;22.80;99.90
25991;DHT22;13779;-33.886;151.198;2023-02-15T00:37:24;22.90;99.90
25991;DHT22;13779;-33.886;151.198;2023-02-15T00:39:55;23.00;99.90
25991;DHT22;13779;-33.886;151.198;2023-02-15T00:42:25;23.00;99.90
25991;DHT22;13779;-33.886;151.198;2023-02-15T00:44:56;23.00;99.90
25991;DHT22;13779;-33.886;151.198;2023-02-15T00:47:27;23.00;99.90
25991;DHT22;13779;-33.886;151.198;2023-02-15T00:49:57;23.20;99.90
25991;DHT22;13779;-33.886;151.198;2023-02-15T00:52:27;23.20;99.90
25991;DHT22;13779;-33.886;151.198;2023-02-15T00:54:58;23.20;99.90
25991;DHT22;13779;-33.886;151.198;2023-02-15T00:57:28;23.30;99.90
25991;DHT22;13779;-33.886;151.198;2023-02-15T00:59:59;23.40;99.90
25991;DHT22;13779;-33.886;151.198;2023-02-15T01:02:29;23.50;99.90
25991;DHT22;13779;-33.886;151.198;2023-02-15T01:05:00;23.60;99.90
25991;DHT22;13779;-33.886;151.198;2023-02-15T01:07:30;23.70;99.90
25991;DHT22;13779;-33.886;151.198;2023-02-15T01:10:01;23.80;99.90
25991;DHT22;13779;-33.886;151.198;2023-02-15T01:12:32;23.80;99.90
25991;DHT22;13779;-33.886;151.198;2023-02-15T01:15:02;23.90;99.90
25991;DHT22;13779;-33.886;151.198;2023-02-15T01:17:33;23.90;99.90
25991;DHT22;13779;-33.886;151.198;2023-02-15T01:20:04;23.80;99.90
25991;DHT22;13779;-33.886;151.198;2023-02-15T01:22:36;23.60;99.90
25991;DHT22;13779;-33.886;151.198;2023-02-15T01:25:07;23.50;99.90
25991;DHT22;13779;-33.886;151.198;2023-02-15T01:27:37;23.60;99.90
25991;DHT22;13779;-33.886;151.198;2023-02-15T01:30:08;23.70;99.90
25991;DHT22;13779;-33.886;151.198;2023-02-15T01:32:39;23.70;99.90
25991;DHT22;13779;-33.886;151.198;2023-02-15T01:35:10;23.80;99.90
25991;DHT22;13779;-33.886;151.198;2023-02-15T01:37:41;23.90;99.90
25991;DHT22;13779;-33.886;151.198;2023-02-15T01:40:16;23.90;99.90
25991;DHT22;13779;-33.886;151.198;2023-02-15T01:42:54;24.00;99.90
25991;DHT22;13779;-33.886;151.198;2023-02-15T01:45:26;24.00;99.90
25991;DHT22;13779;-33.886;151.198;2023-02-15T01:48:05;24.00;99.90
25991;DHT22;13779;-33.886;151.198;2023-02-15T01:50:37;24.00;99.90
25991;DHT22;13779;-33.886;151.198;2023-02-15T01:53:27;24.00;99.90
25991;DHT22;13779;-33.886;151.198;2023-02-15T01:56:04;24.10;99.90
25991;DHT22;13779;-33.886;151.198;2023-02-15T01:58:36;24.20;99.90
25991;DHT22;13779;-33.886;151.198;2023-02-15T02:01:08;24.20;99.90
25991;DHT22;13779;-33.886;151.198;2023-02-15T02:04:08;24.30;99.90
25991;DHT22;13779;-33.886;151.198;2023-02-15T02:06:42;24.30;99.90
25991;DHT22;13779;-33.886;151.198;2023-02-15T02:09:13;24.30;99.90
25991;DHT22;13779;-33.886;151.198;2023-02-15T02:11:46;24.30;99.90
25991;DHT22;13779;-33.886;151.198;2023-02-15T02:14:17;24.30;99.90
25991;DHT22;13779;-33.886;151.198;2023-02-15T02:17:11;24.30;99.90
25991;DHT22;13779;-33.886;151.198;2023-02-15T02:23:15;24.30;99.90
25991;DHT22;13779;-33.886;151.198;2023-02-15T02:32:10;24.20;99.90
25991;DHT22;13779;-33.886;151.198;2023-02-15T02:34:55;24.20;99.90
25991;DHT22;13779;-33.886;151.198;2023-02-15T02:38:11;24.20;99.90
25991;DHT22;13779;-33.886;151.198;2023-02-15T02:41:12;24.40;99.90
25991;DHT22;13779;-33.886;151.198;2023-02-15T02:50:00;24.20;99.90
25991;DHT22;13779;-33.886;151.198;2023-02-15T02:52:47;24.20;99.90
25991;DHT22;13779;-33.886;151.198;2023-02-15T02:55:38;24.20;99.90
25991;DHT22;13779;-33.886;151.198;2023-02-15T02:58:15;24.20;99.90
25991;DHT22;13779;-33.886;151.198;2023-02-15T03:01:13;24.10;99.90
25991;DHT22;13779;-33.886;151.198;2023-02-15T03:04:01;24.10;99.90
25991;DHT22;13779;-33.886;151.198;2023-02-15T03:06:40;24.10;99.90
25991;DHT22;13779;-33.886;151.198;2023-02-15T03:09:21;24.10;99.90
25991;DHT22;13779;-33.886;151.198;2023-02-15T03:11:54;24.20;99.90
25991;DHT22;13779;-33.886;151.198;2023-02-15T03:14:24;24.20;99.90
25991;DHT22;13779;-33.886;151.198;2023-02-15T03:16:55;24.30;99.90
25991;DHT22;13779;-33.886;151.198;2023-02-15T03:19:29;24.30;99.90
25991;DHT22;13779;-33.886;151.198;2023-02-15T03:22:21;24.30;99.90
25991;DHT22;13779;-33.886;151.198;2023-02-15T03:25:05;24.40;99.90
25991;DHT22;13779;-33.886;151.198;2023-02-15T03:27:42;24.40;99.90
25991;DHT22;13779;-33.886;151.198;2023-02-15T03:30:15;24.50;99.90
25991;DHT22;13779;-33.886;151.198;2023-02-15T03:32:49;24.50;99.90
25991;DHT22;13779;-33.886;151.198;2023-02-15T03:35:23;24.60;99.90
25991;DHT22;13779;-33.886;151.198;2023-02-15T03:38:00;24.50;99.90
25991;DHT22;13779;-33.886;151.198;2023-02-15T03:49:12;24.40;99.90
25991;DHT22;13779;-33.886;151.198;2023-02-15T03:51:52;24.30;99.90
25991;DHT22;13779;-33.886;151.198;2023-02-15T03:54:33;24.30;99.90
25991;DHT22;13779;-33.886;151.198;2023-02-15T04:00:09;24.30;99.90
25991;DHT22;13779;-33.886;151.198;2023-02-15T04:05:47;24.50;99.90
25991;DHT22;13779;-33.886;151.198;2023-02-15T04:08:17;24.40;99.90
25991;DHT22;13779;-33.886;151.198;2023-02-15T04:10:47;24.30;99.90
25991;DHT22;13779;-33.886;151.198;2023-02-15T04:13:31;24.30;99.90
25991;DHT22;13779;-33.886;151.198;2023-02-15T04:16:02;24.30;99.90
25991;DHT22;13779;-33.886;151.198;2023-02-15T04:18:38;24.30;99.90
25991;DHT22;13779;-33.886;151.198;2023-02-15T04:21:29;24.30;99.90
25991;DHT22;13779;-33.886;151.198;2023-02-15T04:24:21;24.50;99.90
25991;DHT22;13779;-33.886;151.198;2023-02-15T04:27:10;24.50;99.90
25991;DHT22;13779;-33.886;151.198;2023-02-15T04:29:40;24.50;99.90
25991;DHT22;13779;-33.886;151.198;2023-02-15T04:32:11;24.40;99.90
25991;DHT22;13779;-33.886;151.198;2023-02-15T04:34:41;24.30;99.90
25991;DHT22;13779;-33.886;151.198;2023-02-15T04:37:11;24.40;99.90
25991;DHT22;13779;-33.886;151.198;2023-02-15T04:39:41;24.40;99.90
25991;DHT22;13779;-33.886;151.198;2023-02-15T04:42:11;24.40;99.90
25991;DHT22;13779;-33.886;151.198;2023-02-15T04:44:41;24.40;99.90
25991;DHT22;13779;-33.886;151.198;2023-02-15T04:47:11;24.30;99.90
25991;DHT22;13779;-33.886;151.198;2023-02-15T04:49:42;24.30;99.90
25991;DHT22;13779;-33.886;151.198;2023-02-15T04:52:12;24.30;99.90
25991;DHT22;13779;-33.886;151.198;2023-02-15T04:54:42;24.40;99.90
25991;DHT22;13779;-33.886;151.198;2023-02-15T04:57:13;24.40;99.90
25991;DHT22;13779;-33.886;151.198;2023-02-15T04:59:43;24.50;99.90
25991;DHT22;13779;-33.886;151.198;2023-02-15T05:02:13;24.70;99.90
25991;DHT22;13779;-33.886;151.198;2023-02-15T05:04:43;24.60;99.90
25991;DHT22;13779;-33.886;151.198;2023-02-15T05:07:13;24.60;99.90
25991;DHT22;13779;-33.886;151.198;2023-02-15T05:09:44;24.60;99.90
25991;DHT22;13779;-33.886;151.198;2023-02-15T05:12:14;24.60;99.90
25991;DHT22;13779;-33.886;151.198;2023-02-15T05:14:44;24.70;99.90
25991;DHT22;13779;-33.886;151.198;2023-02-15T05:17:14;24.70;99.90
25991;DHT22;13779;-33.886;151.198;2023-02-15T05:19:44;24.70;99.90
25991;DHT22;13779;-33.886;151.198;2023-02-15T05:22:15;24.80;99.90
25991;DHT22;13779;-33.886;151.198;2023-02-15T05:24:45;24.90;99.90
25991;DHT22;13779;-33.886;151.198;2023-02-15T05:27:33;24.90;99.90
25991;DHT22;13779;-33.886;151.198;2023-02-15T05:30:22;24.90;99.90
25991;DHT22;13779;-33.886;151.198;2023-02-15T05:32:52;25.00;99.90
25991;DHT22;13779;-33.886;151.198;2023-02-15T05:35:22;25.00;99.90
25991;DHT22;13779;-33.886;151.198;2023-02-15T05:37:54;25.00;99.90
25991;DHT22;13779;-33.886;151.198;2023-02-15T05:40:24;25.00;99.90
25991;DHT22;13779;-33.886;151.198;2023-02-15T05:42:55;24.90;99.90
25991;DHT22;13779;-33.886;151.198;2023-02-15T05:45:28;24.80;99.90
25991;DHT22;13779;-33.886;151.198;2023-02-15T05:47:58;24.60;99.90
25991;DHT22;13779;-33.886;151.198;2023-02-15T05:50:29;24.50;99.90
25991;DHT22;13779;-33.886;151.198;2023-02-15T05:52:59;24.40;99.90
25991;DHT22;13779;-33.886;151.198;2023-02-15T05:55:29;24.50;99.90
25991;DHT22;13779;-33.886;151.198;2023-02-15T05:57:59;24.40;99.90
25991;DHT22;13779;-33.886;151.198;2023-02-15T06:00:29;24.30;99.90
25991;DHT22;13779;-33.886;151.198;2023-02-15T06:02:59;24.30;99.90
25991;DHT22;13779;-33.886;151.198;2023-02-15T06:05:29;24.40;99.90
25991;DHT22;13779;-33.886;151.198;2023-02-15T06:08:00;24.40;99.90
25991;DHT22;13779;-33.886;151.198;2023-02-15T06:10:32;24.40;99.90
25991;DHT22;13779;-33.886;151.198;2023-02-15T06:13:02;24.50;99.90
25991;DHT22;13779;-33.886;151.198;2023-02-15T06:15:33;24.30;99.90
25991;DHT22;13779;-33.886;151.198;2023-02-15T06:18:03;24.20;99.90
25991;DHT22;13779;-33.886;151.198;2023-02-15T06:20:33;24.20;99.90
25991;DHT22;13779;-33.886;151.198;2023-02-15T06:23:03;24.10;99.90
25991;DHT22;13779;-33.886;151.198;2023-02-15T06:25:33;24.10;99.90
25991;DHT22;13779;-33.886;151.198;2023-02-15T06:28:06;24.10;99.90
25991;DHT22;13779;-33.886;151.198;2023-02-15T06:30:36;24.20;99.90
25991;DHT22;13779;-33.886;151.198;2023-02-15T06:33:07;24.20;99.90
25991;DHT22;13779;-33.886;151.198;2023-02-15T06:35:37;24.20;99.90
25991;DHT22;13779;-33.886;151.198;2023-02-15T06:38:07;24.20;99.90
25991;DHT22;13779;-33.886;151.198;2023-02-15T06:40:37;24.10;99.90
25991;DHT22;13779;-33.886;151.198;2023-02-15T06:43:08;24.00;99.90
25991;DHT22;13779;-33.886;151.198;2023-02-15T06:45:38;23.90;99.90
25991;DHT22;13779;-33.886;151.198;2023-02-15T06:48:09;23.90;99.90
25991;DHT22;13779;-33.886;151.198;2023-02-15T06:50:41;23.90;99.90
25991;DHT22;13779;-33.886;151.198;2023-02-15T06:53:24;23.90;99.90
25991;DHT22;13779;-33.886;151.198;2023-02-15T06:56:01;23.90;99.90
25991;DHT22;13779;-33.886;151.198;2023-02-15T06:58:37;23.90;99.90
25991;DHT22;13779;-33.886;151.198;2023-02-15T07:01:08;23.90;99.90
25991;DHT22;13779;-33.886;151.198;2023-02-15T07:03:39;23.80;99.90
25991;DHT22;13779;-33.886;151.198;2023-02-15T07:06:10;23.90;99.90
25991;DHT22;13779;-33.886;151.198;2023-02-15T07:08:41;24.00;99.90
25991;DHT22;13779;-33.886;151.198;2023-02-15T07:11:16;24.00;99.90
25991;DHT22;13779;-33.886;151.198;2023-02-15T07:14:05;24.00;99.90
25991;DHT22;13779;-33.886;151.198;2023-02-15T07:16:36;24.00;99.90
25991;DHT22;13779;-33.886;151.198;2023-02-15T07:19:06;24.00;99.90
25991;DHT22;13779;-33.886;151.198;2023-02-15T07:21:37;23.90;99.90
25991;DHT22;13779;-33.886;151.198;2023-02-15T07:24:07;23.90;99.90
25991;DHT22;13779;-33.886;151.198;2023-02-15T07:26:38;23.80;99.90
25991;DHT22;13779;-33.886;151.198;2023-02-15T07:29:08;23.80;99.90
25991;DHT22;13779;-33.886;151.198;2023-02-15T07:31:39;23.70;99.90
25991;DHT22;13779;-33.886;151.198;2023-02-15T07:34:09;23.70;99.90
25991;DHT22;13779;-33.886;151.198;2023-02-15T07:36:40;23.70;99.90
25991;DHT22;13779;-33.886;151.198;2023-02-15T07:39:11;23.70;99.90
25991;DHT22;13779;-33.886;151.198;2023-02-15T07:41:42;23.70;99.90
25991;DHT22;13779;-33.886;151.198;2023-02-15T07:44:14;23.70;99.90
25991;DHT22;13779;-33.886;151.198;2023-02-15T07:46:45;23.70;99.90
25991;DHT22;13779;-33.886;151.198;2023-02-15T07:49:16;23.70;99.90
25991;DHT22;13779;-33.886;151.198;2023-02-15T07:51:47;23.70;99.90
25991;DHT22;13779;-33.886;151.198;2023-02-15T07:54:17;23.70;99.90
25991;DHT22;13779;-33.886;151.198;2023-02-15T07:56:48;23.70;99.90
25991;DHT22;13779;-33.886;151.198;2023-02-15T07:59:19;23.70;99.90
25991;DHT22;13779;-33.886;151.198;2023-02-15T08:01:49;23.70;99.90
25991;DHT22;13779;-33.886;151.198;2023-02-15T08:04:20;23.70;99.90
25991;DHT22;13779;-33.886;151.198;2023-02-15T08:06:53;23.70;99.90
25991;DHT22;13779;-33.886;151.198;2023-02-15T08:09:27;23.70;99.90
25991;DHT22;13779;-33.886;151.198;2023-02-15T08:11:57;23.60;99.90
25991;DHT22;13779;-33.886;151.198;2023-02-15T08:14:28;23.60;99.90
25991;DHT22;13779;-33.886;151.198;2023-02-15T08:17:00;23.60;99.90
25991;DHT22;13779;-33.886;151.198;2023-02-15T08:19:34;23.60;99.90
25991;DHT22;13779;-33.886;151.198;2023-02-15T08:22:06;23.50;99.90
25991;DHT22;13779;-33.886;151.198;2023-02-15T08:24:41;23.50;99.90
25991;DHT22;13779;-33.886;151.198;2023-02-15T08:27:11;23.50;99.90
25991;DHT22;13779;-33.886;151.198;2023-02-15T08:29:42;23.40;99.90
25991;DHT22;13779;-33.886;151.198;2023-02-15T08:32:16;23.40;99.90
25991;DHT22;13779;-33.886;151.198;2023-02-15T08:34:46;23.40;99.90
25991;DHT22;13779;-33.886;151.198;2023-02-15T08:37:18;23.40;99.90
25991;DHT22;13779;-33.886;151.198;2023-02-15T08:39:49;23.30;99.90
25991;DHT22;13779;-33.886;151.198;2023-02-15T08:42:22;23.30;99.90
25991;DHT22;13779;-33.886;151.198;2023-02-15T08:44:53;23.30;99.90
25991;DHT22;13779;-33.886;151.198;2023-02-15T08:47:23;23.30;99.90
25991;DHT22;13779;-33.886;151.198;2023-02-15T08:49:54;23.30;99.90
25991;DHT22;13779;-33.886;151.198;2023-02-15T08:52:25;23.20;99.90
25991;DHT22;13779;-33.886;151.198;2023-02-15T08:54:56;23.20;99.90
25991;DHT22;13779;-33.886;151.198;2023-02-15T08:57:26;23.20;99.90
25991;DHT22;13779;-33.886;151.198;2023-02-15T08:59:58;23.20;99.90
25991;DHT22;13779;-33.886;151.198;2023-02-15T09:02:28;23.20;99.90
25991;DHT22;13779;-33.886;151.198;2023-02-15T09:05:02;23.10;99.90
25991;DHT22;13779;-33.886;151.198;2023-02-15T09:07:33;23.10;99.90
25991;DHT22;13779;-33.886;151.198;2023-02-15T09:10:05;23.10;99.90
25991;DHT22;13779;-33.886;151.198;2023-02-15T09:12:36;23.10;99.90
25991;DHT22;13779;-33.886;151.198;2023-02-15T09:15:07;23.10;99.90
25991;DHT22;13779;-33.886;151.198;2023-02-15T09:17:37;23.10;99.90
25991;DHT22;13779;-33.886;151.198;2023-02-15T09:20:08;23.20;99.90
25991;DHT22;13779;-33.886;151.198;2023-02-15T09:22:39;23.10;99.90
25991;DHT22;13779;-33.886;151.198;2023-02-15T09:25:10;23.10;99.90
25991;DHT22;13779;-33.886;151.198;2023-02-15T09:27:43;23.10;99.90
25991;DHT22;13779;-33.886;151.198;2023-02-15T09:30:13;23.20;99.90
25991;DHT22;13779;-33.886;151.198;2023-02-15T09:32:44;23.10;99.90
25991;DHT22;13779;-33.886;151.198;2023-02-15T09:35:17;23.10;99.90
25991;DHT22;13779;-33.886;151.198;2023-02-15T09:37:47;23.00;99.90
25991;DHT22;13779;-33.886;151.198;2023-02-15T09:40:18;23.00;99.90
25991;DHT22;13779;-33.886;151.198;2023-02-15T09:43:01;23.10;99.90
25991;DHT22;13779;-33.886;151.198;2023-02-15T09:46:04;23.00;99.90
25991;DHT22;13779;-33.886;151.198;2023-02-15T09:48:41;23.00;99.90
25991;DHT22;13779;-33.886;151.198;2023-02-15T09:51:21;23.00;99.90
25991;DHT22;13779;-33.886;151.198;2023-02-15T09:54:33;23.00;99.90
25991;DHT22;13779;-33.886;151.198;2023-02-15T10:06:56;23.00;99.90
25991;DHT22;13779;-33.886;151.198;2023-02-15T10:18:37;22.90;99.90
25991;DHT22;13779;-33.886;151.198;2023-02-15T10:24:15;22.80;99.90
25991;DHT22;13779;-33.886;151.198;2023-02-15T10:26:49;22.90;99.90
25991;DHT22;13779;-33.886;151.198;2023-02-15T10:29:26;22.80;99.90
25991;DHT22;13779;-33.886;151.198;2023-02-15T10:32:26;22.90;99.90
25991;DHT22;13779;-33.886;151.198;2023-02-15T10:38:10;22.90;99.90
25991;DHT22;13779;-33.886;151.198;2023-02-15T10:41:01;22.80;99.90
25991;DHT22;13779;-33.886;151.198;2023-02-15T10:46:49;22.80;99.90
25991;DHT22;13779;-33.886;151.198;2023-02-15T10:54:54;22.80;99.90
25991;DHT22;13779;-33.886;151.198;2023-02-15T10:57:59;22.80;99.90
25991;DHT22;13779;-33.886;151.198;2023-02-15T11:06:06;22.70;99.90
25991;DHT22;13779;-33.886;151.198;2023-02-15T11:09:00;22.80;99.90
25991;DHT22;13779;-33.886;151.198;2023-02-15T11:11:37;22.80;99.90
25991;DHT22;13779;-33.886;151.198;2023-02-15T11:14:38;22.80;99.90
25991;DHT22;13779;-33.886;151.198;2023-02-15T11:17:14;22.70;99.90
25991;DHT22;13779;-33.886;151.198;2023-02-15T11:23:25;22.80;99.90
25991;DHT22;13779;-33.886;151.198;2023-02-15T11:26:34;22.80;99.90
25991;DHT22;13779;-33.886;151.198;2023-02-15T11:31:53;22.70;99.90
25991;DHT22;13779;-33.886;151.198;2023-02-15T11:37:01;22.70;99.90
25991;DHT22;13779;-33.886;151.198;2023-02-15T11:39:36;22.70;99.90
25991;DHT22;13779;-33.886;151.198;2023-02-15T11:42:06;22.60;99.90
25991;DHT22;13779;-33.886;151.198;2023-02-15T11:47:18;22.70;99.90
25991;DHT22;13779;-33.886;151.198;2023-02-15T11:49:48;22.60;99.90
25991;DHT22;13779;-33.886;151.198;2023-02-15T11:52:18;22.60;99.90
25991;DHT22;13779;-33.886;151.198;2023-02-15T11:54:51;22.70;99.90
25991;DHT22;13779;-33.886;151.198;2023-02-15T12:00:03;22.60;99.90
25991;DHT22;13779;-33.886;151.198;2023-02-15T12:02:44;22.60;99.90
25991;DHT22;13779;-33.886;151.198;2023-02-15T12:05:18;22.60;99.90
25991;DHT22;13779;-33.886;151.198;2023-02-15T12:08:00;22.60;99.90
25991;DHT22;13779;-33.886;151.198;2023-02-15T12:11:25;22.60;99.90
25991;DHT22;13779;-33.886;151.198;2023-02-15T12:13:29;22.60;99.90
25991;DHT22;13779;-33.886;151.198;2023-02-15T12:16:06;22.60;99.90
25991;DHT22;13779;-33.886;151.198;2023-02-15T12:18:43;22.60;99.90
25991;DHT22;13779;-33.886;151.198;2023-02-15T12:21:29;22.50;99.90
25991;DHT22;13779;-33.886;151.198;2023-02-15T12:27:31;22.50;99.90
25991;DHT22;13779;-33.886;151.198;2023-02-15T12:30:06;22.50;99.90
25991;DHT22;13779;-33.886;151.198;2023-02-15T12:35:36;22.50;99.90
25991;DHT22;13779;-33.886;151.198;2023-02-15T12:40:40;22.40;99.90
25991;DHT22;13779;-33.886;151.198;2023-02-15T12:43:31;22.40;99.90
25991;DHT22;13779;-33.886;151.198;2023-02-15T12:46:21;22.40;99.90
25991;DHT22;13779;-33.886;151.198;2023-02-15T12:49:18;22.40;99.90
25991;DHT22;13779;-33.886;151.198;2023-02-15T12:51:50;22.40;99.90
25991;DHT22;13779;-33.886;151.198;2023-02-15T12:54:28;22.40;99.90
25991;DHT22;13779;-33.886;151.198;2023-02-15T12:57:02;22.30;99.90
25991;DHT22;13779;-33.886;151.198;2023-02-15T13:08:02;22.30;99.90
25991;DHT22;13779;-33.886;151.198;2023-02-15T13:10:42;22.30;99.90
25991;DHT22;13779;-33.886;151.198;2023-02-15T13:13:19;22.30;99.90
25991;DHT22;13779;-33.886;151.198;2023-02-15T13:15:53;22.30;99.90
25991;DHT22;13779;-33.886;151.198;2023-02-15T13:18:31;22.30;99.90
25991;DHT22;13779;-33.886;151.198;2023-02-15T13:21:14;22.30;99.90
25991;DHT22;13779;-33.886;151.198;2023-02-15T13:24:01;22.30;99.90
25991;DHT22;13779;-33.886;151.198;2023-02-15T13:26:32;22.20;99.90
25991;DHT22;13779;-33.886;151.198;2023-02-15T13:29:12;22.30;99.90
25991;DHT22;13779;-33.886;151.198;2023-02-15T13:31:45;22.20;99.90
25991;DHT22;13779;-33.886;151.198;2023-02-15T13:34:26;22.20;99.90
25991;DHT22;13779;-33.886;151.198;2023-02-15T13:45:24;22.20;99.90
25991;DHT22;13779;-33.886;151.198;2023-02-15T13:53:42;22.20;99.90
25991;DHT22;13779;-33.886;151.198;2023-02-15T13:56:54;22.10;99.90
25991;DHT22;13779;-33.886;151.198;2023-02-15T14:05:39;21.80;99.90
25991;DHT22;13779;-33.886;151.198;2023-02-15T14:10:57;21.70;99.90
25991;DHT22;13779;-33.886;151.198;2023-02-15T14:19:36;21.60;99.90
25991;DHT22;13779;-33.886;151.198;2023-02-15T14:24:43;21.60;99.90
25991;DHT22;13779;-33.886;151.198;2023-02-15T14:27:52;21.50;99.90
25991;DHT22;13779;-33.886;151.198;2023-02-15T14:30:31;21.50;99.90
25991;DHT22;13779;-33.886;151.198;2023-02-15T14:35:53;21.50;99.90
25991;DHT22;13779;-33.886;151.198;2023-02-15T14:41:38;21.50;99.90
25991;DHT22;13779;-33.886;151.198;2023-02-15T14:49:38;21.40;99.90
25991;DHT22;13779;-33.886;151.198;2023-02-15T14:52:11;21.30;99.90
25991;DHT22;13779;-33.886;151.198;2023-02-15T14:59:58;21.30;99.90
25991;DHT22;13779;-33.886;151.198;2023-02-15T15:02:47;21.30;99.90
25991;DHT22;13779;-33.886;151.198;2023-02-15T15:05:29;21.20;99.90
25991;DHT22;13779;-33.886;151.198;2023-02-15T15:08:04;21.20;99.90
25991;DHT22;13779;-33.886;151.198;2023-02-15T15:10:36;21.20;99.90
25991;DHT22;13779;-33.886;151.198;2023-02-15T15:19:00;21.10;99.90
25991;DHT22;13779;-33.886;151.198;2023-02-15T15:27:43;21.00;99.90
25991;DHT22;13779;-33.886;151.198;2023-02-15T15:32:59;21.00;99.90
25991;DHT22;13779;-33.886;151.198;2023-02-15T15:41:41;21.10;99.90
25991;DHT22;13779;-33.886;151.198;2023-02-15T15:44:55;21.10;99.90
25991;DHT22;13779;-33.886;151.198;2023-02-15T15:50:42;21.00;99.90
25991;DHT22;13779;-33.886;151.198;2023-02-15T15:53:24;21.00;99.90
25991;DHT22;13779;-33.886;151.198;2023-02-15T15:56:06;21.00;99.90
25991;DHT22;13779;-33.886;151.198;2023-02-15T15:58:46;21.00;99.90
25991;DHT22;13779;-33.886;151.198;2023-02-15T16:01:28;21.00;99.90
25991;DHT22;13779;-33.886;151.198;2023-02-15T16:04:00;21.00;99.90
25991;DHT22;13779;-33.886;151.198;2023-02-15T16:06:32;21.00;99.90
25991;DHT22;13779;-33.886;151.198;2023-02-15T16:09:18;21.00;99.90
25991;DHT22;13779;-33.886;151.198;2023-02-15T16:11:56;20.90;99.90
25991;DHT22;13779;-33.886;151.198;2023-02-15T16:14:36;20.90;99.90
25991;DHT22;13779;-33.886;151.198;2023-02-15T16:17:21;20.90;99.90
25991;DHT22;13779;-33.886;151.198;2023-02-15T16:19:57;20.80;99.90
25991;DHT22;13779;-33.886;151.198;2023-02-15T16:22:29;20.90;99.90
25991;DHT22;13779;-33.886;151.198;2023-02-15T16:25:25;20.90;99.90
25991;DHT22;13779;-33.886;151.198;2023-02-15T16:28:07;20.80;99.90
25991;DHT22;13779;-33.886;151.198;2023-02-15T16:30:42;20.80;99.90
25991;DHT22;13779;-33.886;151.198;2023-02-15T16:33:20;20.80;99.90
25991;DHT22;13779;-33.886;151.198;2023-02-15T16:35:56;20.70;99.90
25991;DHT22;13779;-33.886;151.198;2023-02-15T16:41:30;20.60;99.90
25991;DHT22;13779;-33.886;151.198;2023-02-15T16:44:11;20.60;99.90
25991;DHT22;13779;-33.886;151.198;2023-02-15T16:46:46;20.60;99.90
25991;DHT22;13779;-33.886;151.198;2023-02-15T16:49:25;20.60;99.90
25991;DHT22;13779;-33.886;151.198;2023-02-15T16:51:58;20.60;99.90
25991;DHT22;13779;-33.886;151.198;2023-02-15T16:54:30;20.60;99.90
25991;DHT22;13779;-33.886;151.198;2023-02-15T16:57:02;20.60;99.90
25991;DHT22;13779;-33.886;151.198;2023-02-15T16:59:39;20.60;99.90
25991;DHT22;13779;-33.886;151.198;2023-02-15T17:02:25;20.60;99.90
25991;DHT22;13779;-33.886;151.198;2023-02-15T17:05:18;20.60;99.90
25991;DHT22;13779;-33.886;151.198;2023-02-15T17:10:42;20.60;99.90
25991;DHT22;13779;-33.886;151.198;2023-02-15T17:13:16;20.60;99.90
25991;DHT22;13779;-33.886;151.198;2023-02-15T17:18:45;20.50;99.90
25991;DHT22;13779;-33.886;151.198;2023-02-15T17:21:28;20.50;99.90
25991;DHT22;13779;-33.886;151.198;2023-02-15T17:24:02;20.40;99.90
25991;DHT22;13779;-33.886;151.198;2023-02-15T17:26:36;20.40;99.90
25991;DHT22;13779;-33.886;151.198;2023-02-15T17:31:56;20.40;99.90
25991;DHT22;13779;-33.886;151.198;2023-02-15T17:37:43;20.40;99.90
25991;DHT22;13779;-33.886;151.198;2023-02-15T17:42:48;20.30;99.90
25991;DHT22;13779;-33.886;151.198;2023-02-15T17:45:19;20.30;99.90
25991;DHT22;13779;-33.886;151.198;2023-02-15T17:47:50;20.30;99.90
25991;DHT22;13779;-33.886;151.198;2023-02-15T17:50:26;20.30;99.90
25991;DHT22;13779;-33.886;151.198;2023-02-15T17:52:57;20.30;99.90
25991;DHT22;13779;-33.886;151.198;2023-02-15T17:55:34;20.40;99.90
25991;DHT22;13779;-33.886;151.198;2023-02-15T17:58:16;20.40;99.90
25991;DHT22;13779;-33.886;151.198;2023-02-15T18:00:58;20.40;99.90
25991;DHT22;13779;-33.886;151.198;2023-02-15T18:03:50;20.40;99.90
25991;DHT22;13779;-33.886;151.198;2023-02-15T18:06:41;20.50;99.90
25991;DHT22;13779;-33.886;151.198;2023-02-15T18:09:30;20.40;99.90
25991;DHT22;13779;-33.886;151.198;2023-02-15T18:12:25;20.40;99.90
25991;DHT22;13779;-33.886;151.198;2023-02-15T18:14:57;20.50;99.90
25991;DHT22;13779;-33.886;151.198;2023-02-15T18:17:37;20.50;99.90
25991;DHT22;13779;-33.886;151.198;2023-02-15T18:20:35;20.60;99.90
25991;DHT22;13779;-33.886;151.198;2023-02-15T18:23:08;20.70;99.90
25991;DHT22;13779;-33.886;151.198;2023-02-15T18:25:41;20.70;99.90
25991;DHT22;13779;-33.886;151.198;2023-02-15T18:28:15;20.70;99.90
25991;DHT22;13779;-33.886;151.198;2023-02-15T18:30:45;20.70;99.90
25991;DHT22;13779;-33.886;151.198;2023-02-15T18:33:49;20.80;99.90
25991;DHT22;13779;-33.886;151.198;2023-02-15T18:38:55;21.00;99.90
25991;DHT22;13779;-33.886;151.198;2023-02-15T18:41:26;20.90;99.90
25991;DHT22;13779;-33.886;151.198;2023-02-15T18:43:57;21.00;99.90
25991;DHT22;13779;-33.886;151.198;2023-02-15T18:46:27;21.00;99.90
25991;DHT22;13779;-33.886;151.198;2023-02-15T18:48:58;21.10;99.90
25991;DHT22;13779;-33.886;151.198;2023-02-15T18:51:29;21.10;99.90
25991;DHT22;13779;-33.886;151.198;2023-02-15T18:54:00;21.20;99.90